sensor_id;sensor_type;location;lat;lon;timestamp;temperature;humidity
33815;DHT22;20121;51.910;8.406;2023-02-23T00:01:15;8.20;99.90
33815;DHT22;20121;51.910;8.406;2023-02-23T00:03:42;8.20;99.90
33815;DHT22;20121;51.910;8.406;2023-02-23T00:06:08;8.20;99.90
33815;DHT22;20121;51.910;8.406;2023-02-23T00:08:35;8.20;99.90
33815;DHT22;20121;51.910;8.406;2023-02-23T00:11:06;8.00;99.90
33815;DHT22;20121;51.910;8.406;2023-02-23T00:13:32;8.20;99.90
33815;DHT22;20121;51.910;8.406;2023-02-23T00:16:10;8.30;99.90
33815;DHT22;20121;51.910;8.406;2023-02-23T00:18:43;8.30;99.90
33815;DHT22;20121;51.910;8.406;2023-02-23T00:21:13;8.20;99.90
33815;DHT22;20121;51.910;8.406;2023-02-23T00:23:50;8.20;99.90
33815;DHT22;20121;51.910;8.406;2023-02-23T00:26:17;8.20;99.90
33815;DHT22;20121;51.910;8.406;2023-02-23T00:28:46;8.30;99.90
33815;DHT22;20121;51.910;8.406;2023-02-23T00:31:12;8.10;99.90
33815;DHT22;20121;51.910;8.406;2023-02-23T00:33:38;8.30;99.90
33815;DHT22;20121;51.910;8.406;2023-02-23T00:36:08;8.40;99.90
33815;DHT22;20121;51.910;8.406;2023-02-23T00:38:35;8.30;99.90
33815;DHT22;20121;51.910;8.406;2023-02-23T00:41:09;8.40;99.90
33815;DHT22;20121;51.910;8.406;2023-02-23T00:43:37;8.40;99.90
33815;DHT22;20121;51.910;8.406;2023-02-23T00:46:04;8.40;99.90
33815;DHT22;20121;51.910;8.406;2023-02-23T00:48:32;8.40;99.90
33815;DHT22;20121;51.910;8.406;2023-02-23T00:51:02;8.40;99.90
33815;DHT22;20121;51.910;8.406;2023-02-23T00:53:28;8.40;99.90
33815;DHT22;20121;51.910;8.406;2023-02-23T00:55:54;8.40;99.90
33815;DHT22;20121;51.910;8.406;2023-02-23T00:58:21;8.40;99.90
33815;DHT22;20121;51.910;8.406;2023-02-23T01:00:47;8.90;99.90
33815;DHT22;20121;51.910;8.406;2023-02-23T01:03:13;8.40;99.90
33815;DHT22;20121;51.910;8.406;2023-02-23T01:05:38;8.40;99.90
33815;DHT22;20121;51.910;8.406;2023-02-23T01:08:04;8.40;99.90
33815;DHT22;20121;51.910;8.406;2023-02-23T01:10:37;8.60;99.90
33815;DHT22;20121;51.910;8.406;2023-02-23T01:13:03;8.40;99.90
33815;DHT22;20121;51.910;8.406;2023-02-23T01:15:30;8.40;99.90
33815;DHT22;20121;51.910;8.406;2023-02-23T01:17:57;8.50;99.90
33815;DHT22;20121;51.910;8.406;2023-02-23T01:20:23;8.50;99.90
33815;DHT22;20121;51.910;8.406;2023-02-23T01:22:49;8.50;99.90
33815;DHT22;20121;51.910;8.406;2023-02-23T01:25:18;8.40;99.90
33815;DHT22;20121;51.910;8.406;2023-02-23T01:27:44;8.50;99.90
33815;DHT22;20121;51.910;8.406;2023-02-23T01:30:12;8.30;99.90
33815;DHT22;20121;51.910;8.406;2023-02-23T01:32:39;8.60;99.90
33815;DHT22;20121;51.910;8.406;2023-02-23T01:35:07;8.40;99.90
33815;DHT22;20121;51.910;8.406;2023-02-23T01:37:34;8.50;99.90
33815;DHT22;20121;51.910;8.406;2023-02-23T01:40:01;8.50;99.90
33815;DHT22;20121;51.910;8.406;2023-02-23T01:42:30;8.50;99.90
33815;DHT22;20121;51.910;8.406;2023-02-23T01:47:51;8.50;99.90
33815;DHT22;20121;51.910;8.406;2023-02-23T01:50:17;8.30;99.90
33815;DHT22;20121;51.910;8.406;2023-02-23T01:52:46;8.60;99.90
33815;DHT22;20121;51.910;8.406;2023-02-23T01:55:14;8.60;99.90
33815;DHT22;20121;51.910;8.406;2023-02-23T01:57:41;8.50;99.90
33815;DHT22;20121;51.910;8.406;2023-02-23T02:00:07;8.60;99.90
33815;DHT22;20121;51.910;8.406;2023-02-23T02:02:38;8.50;99.90
33815;DHT22;20121;51.910;8.406;2023-02-23T02:05:05;8.60;99.90
33815;DHT22;20121;51.910;8.406;2023-02-23T02:07:37;8.20;99.90
33815;DHT22;20121;51.910;8.406;2023-02-23T02:10:05;7.90;99.90
33815;DHT22;20121;51.910;8.406;2023-02-23T02:12:38;8.60;99.90
33815;DHT22;20121;51.910;8.406;2023-02-23T02:15:06;8.60;99.90
33815;DHT22;20121;51.910;8.406;2023-02-23T02:32:18;8.60;99.90
33815;DHT22;20121;51.910;8.406;2023-02-23T02:40:47;8.60;99.90
33815;DHT22;20121;51.910;8.406;2023-02-23T02:45:58;8.40;99.90
33815;DHT22;20121;51.910;8.406;2023-02-23T02:48:50;8.80;99.90
33815;DHT22;20121;51.910;8.406;2023-02-23T02:56:43;8.70;99.90
33815;DHT22;20121;51.910;8.406;2023-02-23T02:59:17;8.70;99.90
33815;DHT22;20121;51.910;8.406;2023-02-23T03:02:03;8.60;99.90
33815;DHT22;20121;51.910;8.406;2023-02-23T03:04:48;8.60;99.90
33815;DHT22;20121;51.910;8.406;2023-02-23T03:07:41;8.60;99.90
33815;DHT22;20121;51.910;8.406;2023-02-23T03:10:40;8.60;99.90
33815;DHT22;20121;51.910;8.406;2023-02-23T03:13:42;8.60;99.90
33815;DHT22;20121;51.910;8.406;2023-02-23T03:19:26;8.30;99.90
33815;DHT22;20121;51.910;8.406;2023-02-23T03:22:23;11.40;99.90
33815;DHT22;20121;51.910;8.406;2023-02-23T03:25:26;8.60;99.90
33815;DHT22;20121;51.910;8.406;2023-02-23T03:28:17;8.60;99.90
33815;DHT22;20121;51.910;8.406;2023-02-23T03:31:22;8.60;99.90
33815;DHT22;20121;51.910;8.406;2023-02-23T03:34:19;8.50;99.90
33815;DHT22;20121;51.910;8.406;2023-02-23T03:37:14;8.60;99.90
33815;DHT22;20121;51.910;8.406;2023-02-23T03:40:16;8.60;99.90
33815;DHT22;20121;51.910;8.406;2023-02-23T03:43:07;8.60;99.90
33815;DHT22;20121;51.910;8.406;2023-02-23T03:45:54;8.60;99.90
33815;DHT22;20121;51.910;8.406;2023-02-23T03:48:40;8.60;99.90
33815;DHT22;20121;51.910;8.406;2023-02-23T03:51:27;8.60;99.90
33815;DHT22;20121;51.910;8.406;2023-02-23T03:54:30;8.40;99.90
33815;DHT22;20121;51.910;8.406;2023-02-23T03:57:18;8.90;99.90
33815;DHT22;20121;51.910;8.406;2023-02-23T04:00:07;8.70;99.90
33815;DHT22;20121;51.910;8.406;2023-02-23T04:02:53;8.70;99.90
33815;DHT22;20121;51.910;8.406;2023-02-23T04:05:41;8.80;99.90
33815;DHT22;20121;51.910;8.406;2023-02-23T04:08:32;8.60;99.90
33815;DHT22;20121;51.910;8.406;2023-02-23T04:17:07;8.70;99.90
33815;DHT22;20121;51.910;8.406;2023-02-23T04:19:33;8.70;99.90
33815;DHT22;20121;51.910;8.406;2023-02-23T04:21:59;8.70;99.90
33815;DHT22;20121;51.910;8.406;2023-02-23T04:24:25;8.70;99.90
33815;DHT22;20121;51.910;8.406;2023-02-23T04:26:50;8.60;99.90
33815;DHT22;20121;51.910;8.406;2023-02-23T04:29:16;8.70;99.90
33815;DHT22;20121;51.910;8.406;2023-02-23T04:31:41;8.70;99.90
33815;DHT22;20121;51.910;8.406;2023-02-23T04:34:07;8.50;99.90
33815;DHT22;20121;51.910;8.406;2023-02-23T04:36:33;8.70;99.90
33815;DHT22;20121;51.910;8.406;2023-02-23T04:38:58;8.20;99.90
33815;DHT22;20121;51.910;8.406;2023-02-23T04:41:24;8.70;99.90
33815;DHT22;20121;51.910;8.406;2023-02-23T04:43:50;8.70;99.90
33815;DHT22;20121;51.910;8.406;2023-02-23T04:46:16;8.70;99.90
33815;DHT22;20121;51.910;8.406;2023-02-23T04:48:41;8.70;99.90
33815;DHT22;20121;51.910;8.406;2023-02-23T04:51:07;8.70;99.90
33815;DHT22;20121;51.910;8.406;2023-02-23T04:53:33;8.70;99.90
33815;DHT22;20121;51.910;8.406;2023-02-23T04:55:58;8.70;99.90
33815;DHT22;20121;51.910;8.406;2023-02-23T04:58:24;8.70;99.90
33815;DHT22;20121;51.910;8.406;2023-02-23T05:00:49;8.70;99.90
33815;DHT22;20121;51.910;8.406;2023-02-23T05:03:15;8.70;99.90
33815;DHT22;20121;51.910;8.406;2023-02-23T05:05:42;8.70;99.90
33815;DHT22;20121;51.910;8.406;2023-02-23T05:08:08;8.70;99.90
33815;DHT22;20121;51.910;8.406;2023-02-23T05:10:35;8.50;99.90
33815;DHT22;20121;51.910;8.406;2023-02-23T05:13:00;8.70;99.90
33815;DHT22;20121;51.910;8.406;2023-02-23T05:15:26;8.70;99.90
33815;DHT22;20121;51.910;8.406;2023-02-23T05:17:53;8.70;99.90
33815;DHT22;20121;51.910;8.406;2023-02-23T05:20:20;8.70;99.90
33815;DHT22;20121;51.910;8.406;2023-02-23T05:22:45;8.70;99.90
33815;DHT22;20121;51.910;8.406;2023-02-23T05:25:11;9.20;99.90
33815;DHT22;20121;51.910;8.406;2023-02-23T05:27:38;8.70;99.90
33815;DHT22;20121;51.910;8.406;2023-02-23T05:30:05;8.70;99.90
33815;DHT22;20121;51.910;8.406;2023-02-23T05:32:32;8.70;99.90
33815;DHT22;20121;51.910;8.406;2023-02-23T05:34:58;8.70;99.90
33815;DHT22;20121;51.910;8.406;2023-02-23T05:37:23;8.10;99.90
33815;DHT22;20121;51.910;8.406;2023-02-23T05:39:49;8.70;99.90
33815;DHT22;20121;51.910;8.406;2023-02-23T05:42:14;8.40;99.90
33815;DHT22;20121;51.910;8.406;2023-02-23T05:44:40;8.70;99.90
33815;DHT22;20121;51.910;8.406;2023-02-23T05:47:06;8.70;99.90
33815;DHT22;20121;51.910;8.406;2023-02-23T05:49:31;8.70;99.90
33815;DHT22;20121;51.910;8.406;2023-02-23T05:51:57;8.70;99.90
33815;DHT22;20121;51.910;8.406;2023-02-23T05:54:23;8.90;99.90
33815;DHT22;20121;51.910;8.406;2023-02-23T05:56:48;8.70;99.90
33815;DHT22;20121;51.910;8.406;2023-02-23T05:59:14;8.60;99.90
33815;DHT22;20121;51.910;8.406;2023-02-23T06:01:42;8.70;99.90
33815;DHT22;20121;51.910;8.406;2023-02-23T06:04:08;8.50;99.90
33815;DHT22;20121;51.910;8.406;2023-02-23T06:06:34;8.70;99.90
33815;DHT22;20121;51.910;8.406;2023-02-23T06:09:00;8.70;99.90
33815;DHT22;20121;51.910;8.406;2023-02-23T06:11:26;8.70;99.90
33815;DHT22;20121;51.910;8.406;2023-02-23T06:13:51;8.70;99.90
33815;DHT22;20121;51.910;8.406;2023-02-23T06:16:17;8.70;99.90
33815;DHT22;20121;51.910;8.406;2023-02-23T06:18:43;8.70;99.90
33815;DHT22;20121;51.910;8.406;2023-02-23T06:21:08;8.70;99.90
33815;DHT22;20121;51.910;8.406;2023-02-23T06:23:34;9.80;99.90
33815;DHT22;20121;51.910;8.406;2023-02-23T06:25:59;8.70;99.90
33815;DHT22;20121;51.910;8.406;2023-02-23T06:28:26;8.70;99.90
33815;DHT22;20121;51.910;8.406;2023-02-23T06:30:53;8.70;99.90
33815;DHT22;20121;51.910;8.406;2023-02-23T06:33:19;8.70;99.90
33815;DHT22;20121;51.910;8.406;2023-02-23T06:35:44;8.40;99.90
33815;DHT22;20121;51.910;8.406;2023-02-23T06:38:10;8.70;99.90
33815;DHT22;20121;51.910;8.406;2023-02-23T06:40:37;8.70;99.90
33815;DHT22;20121;51.910;8.406;2023-02-23T06:43:03;8.90;99.90
33815;DHT22;20121;51.910;8.406;2023-02-23T06:45:29;8.70;99.90
33815;DHT22;20121;51.910;8.406;2023-02-23T06:47:57;8.70;99.90
33815;DHT22;20121;51.910;8.406;2023-02-23T06:50:22;8.70;99.90
33815;DHT22;20121;51.910;8.406;2023-02-23T06:52:48;8.70;99.90
33815;DHT22;20121;51.910;8.406;2023-02-23T06:55:14;8.70;99.90
33815;DHT22;20121;51.910;8.406;2023-02-23T06:57:40;8.70;99.90
33815;DHT22;20121;51.910;8.406;2023-02-23T07:00:07;8.70;99.90
33815;DHT22;20121;51.910;8.406;2023-02-23T07:02:33;8.70;99.90
33815;DHT22;20121;51.910;8.406;2023-02-23T07:05:01;8.60;99.90
33815;DHT22;20121;51.910;8.406;2023-02-23T07:07:26;8.70;99.90
33815;DHT22;20121;51.910;8.406;2023-02-23T07:09:52;8.70;99.90
33815;DHT22;20121;51.910;8.406;2023-02-23T07:12:18;8.70;99.90
33815;DHT22;20121;51.910;8.406;2023-02-23T07:14:43;8.50;99.90
33815;DHT22;20121;51.910;8.406;2023-02-23T07:17:09;8.30;99.90
33815;DHT22;20121;51.910;8.406;2023-02-23T07:19:35;8.70;99.90
33815;DHT22;20121;51.910;8.406;2023-02-23T07:22:00;8.70;99.90
33815;DHT22;20121;51.910;8.406;2023-02-23T07:24:26;7.50;99.90
33815;DHT22;20121;51.910;8.406;2023-02-23T07:26:52;8.80;99.90
33815;DHT22;20121;51.910;8.406;2023-02-23T07:29:18;8.70;99.90
33815;DHT22;20121;51.910;8.406;2023-02-23T07:31:44;8.70;99.90
33815;DHT22;20121;51.910;8.406;2023-02-23T07:34:10;8.70;99.90
33815;DHT22;20121;51.910;8.406;2023-02-23T07:36:36;8.70;99.90
33815;DHT22;20121;51.910;8.406;2023-02-23T07:39:03;8.80;99.90
33815;DHT22;20121;51.910;8.406;2023-02-23T07:41:29;8.70;99.90
33815;DHT22;20121;51.910;8.406;2023-02-23T07:43:55;8.70;99.90
33815;DHT22;20121;51.910;8.406;2023-02-23T07:46:20;8.70;99.90
33815;DHT22;20121;51.910;8.406;2023-02-23T07:48:46;8.70;99.90
33815;DHT22;20121;51.910;8.406;2023-02-23T07:51:13;8.50;99.90
33815;DHT22;20121;51.910;8.406;2023-02-23T07:53:40;9.00;99.90
33815;DHT22;20121;51.910;8.406;2023-02-23T07:56:07;8.70;99.90
33815;DHT22;20121;51.910;8.406;2023-02-23T07:58:42;8.70;99.90
33815;DHT22;20121;51.910;8.406;2023-02-23T08:01:10;8.80;99.90
33815;DHT22;20121;51.910;8.406;2023-02-23T08:03:36;8.70;99.90
33815;DHT22;20121;51.910;8.406;2023-02-23T08:06:03;8.80;99.90
33815;DHT22;20121;51.910;8.406;2023-02-23T08:08:29;8.80;99.90
33815;DHT22;20121;51.910;8.406;2023-02-23T08:11:02;8.80;99.90
33815;DHT22;20121;51.910;8.406;2023-02-23T08:13:28;8.10;99.90
33815;DHT22;20121;51.910;8.406;2023-02-23T08:15:54;8.80;99.90
33815;DHT22;20121;51.910;8.406;2023-02-23T08:18:19;8.70;99.90
33815;DHT22;20121;51.910;8.406;2023-02-23T08:20:45;8.70;99.90
33815;DHT22;20121;51.910;8.406;2023-02-23T08:23:11;8.70;99.90
33815;DHT22;20121;51.910;8.406;2023-02-23T08:25:37;8.80;99.90
33815;DHT22;20121;51.910;8.406;2023-02-23T08:28:03;8.90;99.90
33815;DHT22;20121;51.910;8.406;2023-02-23T08:30:31;9.70;99.90
33815;DHT22;20121;51.910;8.406;2023-02-23T08:32:57;8.70;99.90
33815;DHT22;20121;51.910;8.406;2023-02-23T08:35:24;8.80;99.90
33815;DHT22;20121;51.910;8.406;2023-02-23T08:37:49;8.80;99.90
33815;DHT22;20121;51.910;8.406;2023-02-23T08:40:15;8.80;99.90
33815;DHT22;20121;51.910;8.406;2023-02-23T08:42:42;8.80;99.90
33815;DHT22;20121;51.910;8.406;2023-02-23T08:45:09;8.80;99.90
33815;DHT22;20121;51.910;8.406;2023-02-23T08:47:35;8.80;99.90
33815;DHT22;20121;51.910;8.406;2023-02-23T08:50:02;8.80;99.90
33815;DHT22;20121;51.910;8.406;2023-02-23T08:52:29;8.80;99.90
33815;DHT22;20121;51.910;8.406;2023-02-23T08:54:55;8.60;99.90
33815;DHT22;20121;51.910;8.406;2023-02-23T08:57:21;8.80;99.90
33815;DHT22;20121;51.910;8.406;2023-02-23T08:59:47;8.80;99.90
33815;DHT22;20121;51.910;8.406;2023-02-23T09:02:13;8.80;99.90
33815;DHT22;20121;51.910;8.406;2023-02-23T09:04:39;8.60;99.90
33815;DHT22;20121;51.910;8.406;2023-02-23T09:07:13;8.70;99.90
33815;DHT22;20121;51.910;8.406;2023-02-23T09:09:39;8.70;99.90
33815;DHT22;20121;51.910;8.406;2023-02-23T09:12:05;8.70;99.90
33815;DHT22;20121;51.910;8.406;2023-02-23T09:14:30;8.70;99.90
33815;DHT22;20121;51.910;8.406;2023-02-23T09:16:56;8.70;99.90
33815;DHT22;20121;51.910;8.406;2023-02-23T09:19:22;8.70;99.90
33815;DHT22;20121;51.910;8.406;2023-02-23T09:21:48;8.80;99.90
33815;DHT22;20121;51.910;8.406;2023-02-23T09:24:13;9.10;99.90
33815;DHT22;20121;51.910;8.406;2023-02-23T09:26:39;8.80;99.90
33815;DHT22;20121;51.910;8.406;2023-02-23T09:31:33;8.80;99.90
33815;DHT22;20121;51.910;8.406;2023-02-23T09:33:59;8.80;99.90
33815;DHT22;20121;51.910;8.406;2023-02-23T09:36:28;8.80;99.90
33815;DHT22;20121;51.910;8.406;2023-02-23T09:38:55;8.80;99.90
33815;DHT22;20121;51.910;8.406;2023-02-23T09:44:08;9.10;99.90
33815;DHT22;20121;51.910;8.406;2023-02-23T09:49:17;8.80;99.90
33815;DHT22;20121;51.910;8.406;2023-02-23T09:51:48;8.80;99.90
33815;DHT22;20121;51.910;8.406;2023-02-23T09:54:20;8.80;99.90
33815;DHT22;20121;51.910;8.406;2023-02-23T09:56:47;8.40;99.90
33815;DHT22;20121;51.910;8.406;2023-02-23T09:59:18;8.80;99.90
33815;DHT22;20121;51.910;8.406;2023-02-23T10:04:25;8.80;99.90
33815;DHT22;20121;51.910;8.406;2023-02-23T10:09:58;8.80;99.90
33815;DHT22;20121;51.910;8.406;2023-02-23T10:15:40;8.80;99.90
33815;DHT22;20121;51.910;8.406;2023-02-23T10:18:36;9.00;99.90
33815;DHT22;20121;51.910;8.406;2023-02-23T10:21:20;8.90;99.90
33815;DHT22;20121;51.910;8.406;2023-02-23T10:23:57;8.90;99.90
33815;DHT22;20121;51.910;8.406;2023-02-23T10:26:32;8.90;99.90
33815;DHT22;20121;51.910;8.406;2023-02-23T10:28:58;9.50;99.90
33815;DHT22;20121;51.910;8.406;2023-02-23T10:31:42;8.90;99.90
33815;DHT22;20121;51.910;8.406;2023-02-23T10:34:13;8.90;99.90
33815;DHT22;20121;51.910;8.406;2023-02-23T10:36:55;8.80;99.90
33815;DHT22;20121;51.910;8.406;2023-02-23T10:39:22;9.20;99.90
33815;DHT22;20121;51.910;8.406;2023-02-23T10:41:48;8.90;99.90
33815;DHT22;20121;51.910;8.406;2023-02-23T10:44:20;8.90;99.90
33815;DHT22;20121;51.910;8.406;2023-02-23T10:46:52;8.70;99.90
33815;DHT22;20121;51.910;8.406;2023-02-23T10:49:21;9.00;99.90
33815;DHT22;20121;51.910;8.406;2023-02-23T10:51:48;9.00;99.90
33815;DHT22;20121;51.910;8.406;2023-02-23T10:59:26;9.00;99.90
33815;DHT22;20121;51.910;8.406;2023-02-23T11:01:52;9.00;99.90
33815;DHT22;20121;51.910;8.406;2023-02-23T11:04:29;9.10;99.90
33815;DHT22;20121;51.910;8.406;2023-02-23T11:07:15;9.00;99.90
33815;DHT22;20121;51.910;8.406;2023-02-23T11:09:41;9.10;99.90
33815;DHT22;20121;51.910;8.406;2023-02-23T11:12:24;9.00;99.90
33815;DHT22;20121;51.910;8.406;2023-02-23T11:14:56;9.10;99.90
33815;DHT22;20121;51.910;8.406;2023-02-23T11:17:41;9.10;99.90
33815;DHT22;20121;51.910;8.406;2023-02-23T11:20:32;9.10;99.90
33815;DHT22;20121;51.910;8.406;2023-02-23T11:23:07;9.10;99.90
33815;DHT22;20121;51.910;8.406;2023-02-23T11:25:33;9.10;99.90
33815;DHT22;20121;51.910;8.406;2023-02-23T11:27:59;9.10;99.90
33815;DHT22;20121;51.910;8.406;2023-02-23T11:30:33;9.10;99.90
33815;DHT22;20121;51.910;8.406;2023-02-23T11:33:02;9.20;99.90
33815;DHT22;20121;51.910;8.406;2023-02-23T11:35:35;9.20;99.90
33815;DHT22;20121;51.910;8.406;2023-02-23T11:38:34;9.20;99.90
33815;DHT22;20121;51.910;8.406;2023-02-23T11:41:17;8.70;99.90
33815;DHT22;20121;51.910;8.406;2023-02-23T11:43:51;9.20;99.90
33815;DHT22;20121;51.910;8.406;2023-02-23T11:46:20;9.30;99.90
33815;DHT22;20121;51.910;8.406;2023-02-23T11:48:48;9.30;99.90
33815;DHT22;20121;51.910;8.406;2023-02-23T11:51:29;9.30;99.90
33815;DHT22;20121;51.910;8.406;2023-02-23T11:53:55;9.30;99.90
33815;DHT22;20121;51.910;8.406;2023-02-23T11:56:22;9.30;99.90
33815;DHT22;20121;51.910;8.406;2023-02-23T11:58:53;9.20;99.90
33815;DHT22;20121;51.910;8.406;2023-02-23T12:01:42;9.30;99.90
33815;DHT22;20121;51.910;8.406;2023-02-23T12:09:40;9.20;99.90
33815;DHT22;20121;51.910;8.406;2023-02-23T12:12:14;9.30;99.90
33815;DHT22;20121;51.910;8.406;2023-02-23T12:14:51;9.20;99.90
33815;DHT22;20121;51.910;8.406;2023-02-23T12:17:33;9.30;99.90
33815;DHT22;20121;51.910;8.406;2023-02-23T12:20:02;9.40;99.90
33815;DHT22;20121;51.910;8.406;2023-02-23T12:22:38;9.00;99.90
33815;DHT22;20121;51.910;8.406;2023-02-23T12:25:27;9.00;99.90
33815;DHT22;20121;51.910;8.406;2023-02-23T12:28:30;9.20;99.90
33815;DHT22;20121;51.910;8.406;2023-02-23T12:34:08;9.20;99.90
33815;DHT22;20121;51.910;8.406;2023-02-23T12:36:44;9.20;99.90
33815;DHT22;20121;51.910;8.406;2023-02-23T12:39:16;9.20;99.90
33815;DHT22;20121;51.910;8.406;2023-02-23T12:44:43;9.20;99.90
33815;DHT22;20121;51.910;8.406;2023-02-23T12:50:20;9.30;99.90
33815;DHT22;20121;51.910;8.406;2023-02-23T12:53:41;9.30;99.90
33815;DHT22;20121;51.910;8.406;2023-02-23T12:55:55;9.10;99.90
33815;DHT22;20121;51.910;8.406;2023-02-23T13:01:14;9.30;99.90
33815;DHT22;20121;51.910;8.406;2023-02-23T13:03:53;9.40;99.90
33815;DHT22;20121;51.910;8.406;2023-02-23T13:17:24;9.40;99.90
33815;DHT22;20121;51.910;8.406;2023-02-23T13:19:57;9.20;99.90
33815;DHT22;20121;51.910;8.406;2023-02-23T13:28:02;9.10;99.90
33815;DHT22;20121;51.910;8.406;2023-02-23T13:30:30;9.10;99.90
33815;DHT22;20121;51.910;8.406;2023-02-23T13:33:15;9.00;99.90
33815;DHT22;20121;51.910;8.406;2023-02-23T13:35:43;8.60;99.90
33815;DHT22;20121;51.910;8.406;2023-02-23T13:38:27;9.00;99.90
33815;DHT22;20121;51.910;8.406;2023-02-23T13:41:10;9.00;99.90
33815;DHT22;20121;51.910;8.406;2023-02-23T13:43:45;8.90;99.90
33815;DHT22;20121;51.910;8.406;2023-02-23T13:46:32;8.90;99.90
33815;DHT22;20121;51.910;8.406;2023-02-23T13:51:58;8.80;99.90
33815;DHT22;20121;51.910;8.406;2023-02-23T13:54:31;8.90;99.90
33815;DHT22;20121;51.910;8.406;2023-02-23T13:56:59;8.80;99.90
33815;DHT22;20121;51.910;8.406;2023-02-23T13:59:28;8.80;99.90
33815;DHT22;20121;51.910;8.406;2023-02-23T14:01:55;8.80;99.90
33815;DHT22;20121;51.910;8.406;2023-02-23T14:04:23;8.80;99.90
33815;DHT22;20121;51.910;8.406;2023-02-23T14:09:36;8.80;99.90
33815;DHT22;20121;51.910;8.406;2023-02-23T14:12:34;11.30;99.90
33815;DHT22;20121;51.910;8.406;2023-02-23T14:29:19;8.60;99.90
33815;DHT22;20121;51.910;8.406;2023-02-23T14:34:46;8.60;99.90
33815;DHT22;20121;51.910;8.406;2023-02-23T14:39:53;8.50;99.90
33815;DHT22;20121;51.910;8.406;2023-02-23T14:42:25;8.10;99.90
33815;DHT22;20121;51.910;8.406;2023-02-23T14:44:53;8.50;99.90
33815;DHT22;20121;51.910;8.406;2023-02-23T14:47:21;8.60;99.90
33815;DHT22;20121;51.910;8.406;2023-02-23T14:49:57;8.40;99.90
33815;DHT22;20121;51.910;8.406;2023-02-23T14:52:31;8.40;99.90
33815;DHT22;20121;51.910;8.406;2023-02-23T14:55:27;8.40;99.90
33815;DHT22;20121;51.910;8.406;2023-02-23T14:57:54;8.30;99.90
33815;DHT22;20121;51.910;8.406;2023-02-23T15:00:21;8.30;99.90
33815;DHT22;20121;51.910;8.406;2023-02-23T15:02:59;8.30;99.90
33815;DHT22;20121;51.910;8.406;2023-02-23T15:05:30;8.30;99.90
33815;DHT22;20121;51.910;8.406;2023-02-23T15:08:04;8.20;99.90
33815;DHT22;20121;51.910;8.406;2023-02-23T15:10:36;8.20;99.90
33815;DHT22;20121;51.910;8.406;2023-02-23T15:13:11;8.20;99.90
33815;DHT22;20121;51.910;8.406;2023-02-23T15:15:43;8.00;99.90
33815;DHT22;20121;51.910;8.406;2023-02-23T15:18:18;8.10;99.90
33815;DHT22;20121;51.910;8.406;2023-02-23T15:20:47;8.10;99.90
33815;DHT22;20121;51.910;8.406;2023-02-23T15:23:16;8.10;99.90
33815;DHT22;20121;51.910;8.406;2023-02-23T15:25:43;8.10;99.90
33815;DHT22;20121;51.910;8.406;2023-02-23T15:28:19;8.10;99.90
33815;DHT22;20121;51.910;8.406;2023-02-23T15:30:46;8.10;99.90
33815;DHT22;20121;51.910;8.406;2023-02-23T15:33:15;8.00;99.90
33815;DHT22;20121;51.910;8.406;2023-02-23T15:36:06;8.00;99.90
33815;DHT22;20121;51.910;8.406;2023-02-23T15:38:37;8.00;99.90
33815;DHT22;20121;51.910;8.406;2023-02-23T15:41:06;7.40;99.90
33815;DHT22;20121;51.910;8.406;2023-02-23T15:43:33;7.90;99.90
33815;DHT22;20121;51.910;8.406;2023-02-23T15:46:02;8.00;99.90
33815;DHT22;20121;51.910;8.406;2023-02-23T15:48:57;7.90;99.90
33815;DHT22;20121;51.910;8.406;2023-02-23T15:54:10;7.90;99.90
33815;DHT22;20121;51.910;8.406;2023-02-23T15:56:41;7.70;99.90
33815;DHT22;20121;51.910;8.406;2023-02-23T15:59:15;7.80;99.90
33815;DHT22;20121;51.910;8.406;2023-02-23T16:01:44;7.50;99.90
33815;DHT22;20121;51.910;8.406;2023-02-23T16:04:16;7.90;99.90
33815;DHT22;20121;51.910;8.406;2023-02-23T16:06:55;7.70;99.90
33815;DHT22;20121;51.910;8.406;2023-02-23T16:09:30;7.90;99.90
33815;DHT22;20121;51.910;8.406;2023-02-23T16:12:07;8.00;99.90
33815;DHT22;20121;51.910;8.406;2023-02-23T16:17:29;7.60;99.90
33815;DHT22;20121;51.910;8.406;2023-02-23T16:22:48;7.80;99.90
33815;DHT22;20121;51.910;8.406;2023-02-23T16:25:19;7.50;99.90
33815;DHT22;20121;51.910;8.406;2023-02-23T16:27:48;7.70;99.90
33815;DHT22;20121;51.910;8.406;2023-02-23T16:30:34;7.70;99.90
33815;DHT22;20121;51.910;8.406;2023-02-23T16:33:10;6.70;99.90
33815;DHT22;20121;51.910;8.406;2023-02-23T16:35:42;7.60;99.90
33815;DHT22;20121;51.910;8.406;2023-02-23T16:38:23;7.60;99.90
33815;DHT22;20121;51.910;8.406;2023-02-23T16:40:49;7.60;99.90
33815;DHT22;20121;51.910;8.406;2023-02-23T16:43:15;7.60;99.90
33815;DHT22;20121;51.910;8.406;2023-02-23T16:45:44;7.60;99.90
33815;DHT22;20121;51.910;8.406;2023-02-23T16:48:15;7.50;99.90
33815;DHT22;20121;51.910;8.406;2023-02-23T16:50:41;7.50;99.90
33815;DHT22;20121;51.910;8.406;2023-02-23T16:53:09;7.50;99.90
33815;DHT22;20121;51.910;8.406;2023-02-23T16:55:38;7.50;99.90
33815;DHT22;20121;51.910;8.406;2023-02-23T16:58:09;7.50;99.90
33815;DHT22;20121;51.910;8.406;2023-02-23T17:00:36;7.50;99.90
33815;DHT22;20121;51.910;8.406;2023-02-23T17:03:02;7.50;99.90
33815;DHT22;20121;51.910;8.406;2023-02-23T17:05:30;7.50;99.90
33815;DHT22;20121;51.910;8.406;2023-02-23T17:07:57;7.50;99.90
33815;DHT22;20121;51.910;8.406;2023-02-23T17:10:29;7.50;99.90
33815;DHT22;20121;51.910;8.406;2023-02-23T17:13:03;7.50;99.90
33815;DHT22;20121;51.910;8.406;2023-02-23T17:15:33;7.20;99.90
33815;DHT22;20121;51.910;8.406;2023-02-23T17:17:59;7.50;99.90
33815;DHT22;20121;51.910;8.406;2023-02-23T17:20:26;7.40;99.90
33815;DHT22;20121;51.910;8.406;2023-02-23T17:22:53;7.40;99.90
33815;DHT22;20121;51.910;8.406;2023-02-23T17:25:19;7.40;99.90
33815;DHT22;20121;51.910;8.406;2023-02-23T17:27:46;7.40;99.90
33815;DHT22;20121;51.910;8.406;2023-02-23T17:30:12;7.40;99.90
33815;DHT22;20121;51.910;8.406;2023-02-23T17:32:38;7.40;99.90
33815;DHT22;20121;51.910;8.406;2023-02-23T17:35:04;7.40;99.90
33815;DHT22;20121;51.910;8.406;2023-02-23T17:37:30;7.40;99.90
33815;DHT22;20121;51.910;8.406;2023-02-23T17:39:55;7.40;99.90
33815;DHT22;20121;51.910;8.406;2023-02-23T17:42:21;7.40;99.90
33815;DHT22;20121;51.910;8.406;2023-02-23T17:44:49;7.40;99.90
33815;DHT22;20121;51.910;8.406;2023-02-23T17:47:14;7.20;99.90
33815;DHT22;20121;51.910;8.406;2023-02-23T17:49:40;7.40;99.90
33815;DHT22;20121;51.910;8.406;2023-02-23T17:52:06;7.30;99.90
33815;DHT22;20121;51.910;8.406;2023-02-23T17:54:32;7.40;99.90
33815;DHT22;20121;51.910;8.406;2023-02-23T17:56:57;7.40;99.90
33815;DHT22;20121;51.910;8.406;2023-02-23T17:59:23;7.30;99.90
33815;DHT22;20121;51.910;8.406;2023-02-23T18:01:49;7.40;99.90
33815;DHT22;20121;51.910;8.406;2023-02-23T18:04:15;7.40;99.90
33815;DHT22;20121;51.910;8.406;2023-02-23T18:06:41;7.40;99.90
33815;DHT22;20121;51.910;8.406;2023-02-23T18:09:06;7.40;99.90
33815;DHT22;20121;51.910;8.406;2023-02-23T18:11:33;7.40;99.90
33815;DHT22;20121;51.910;8.406;2023-02-23T18:13:59;7.30;99.90
33815;DHT22;20121;51.910;8.406;2023-02-23T18:16:27;7.30;99.90
33815;DHT22;20121;51.910;8.406;2023-02-23T18:18:53;7.30;99.90